Time;durP1;ratioP1;P1;durP2;ratioP2;P2;SDS_P1;SDS_P2;PMS_P1;PMS_P2;Temp;Humidity;BMP_temperature;BMP_pressure;BME280_temperature;BME280_humidity;BME280_pressure;Samples;Min_cycle;Max_cycle;Signal;HPM_P1;HPM_P2
2022/09/23 00:01:45;;;;;;;4.05;1.75;;;;;;;14.84;63.65;101405.69;4824621;29;20409;-71
2022/09/23 00:04:13;;;;;;;2.47;1.58;;;;;;;14.83;63.09;101413.16;4804602;29;20493;-71
2022/09/23 00:06:42;;;;;;;2.20;1.95;;;;;;;14.82;63.55;101416.19;4836477;29;20054;-71
2022/09/23 00:09:11;;;;;;;1.67;1.58;;;;;;;14.83;63.47;101404.91;4822057;29;20038;-71
2022/09/23 00:11:39;;;;;;;2.70;1.85;;;;;;;14.80;63.18;101419.22;4805595;29;20070;-71
2022/09/23 00:14:06;;;;;;;2.92;1.80;;;;;;;14.72;63.83;101412.38;4806286;29;20049;-71
2022/09/23 00:16:34;;;;;;;2.80;2.03;;;;;;;14.84;63.17;101402.94;4836476;29;20054;-71
2022/09/23 00:19:03;;;;;;;7.28;2.40;;;;;;;14.94;62.78;101407.53;4811899;29;20042;-71
2022/09/23 00:21:31;;;;;;;3.58;2.00;;;;;;;14.77;64.24;101409.59;4808887;29;20061;-71
2022/09/23 00:23:59;;;;;;;2.20;2.00;;;;;;;14.74;64.36;101409.34;4814603;29;20053;-71
2022/09/23 00:26:26;;;;;;;2.38;2.17;;;;;;;14.57;64.63;101409.75;4821962;29;20043;-71
2022/09/23 00:28:54;;;;;;;2.40;2.20;;;;;;;14.49;64.63;101409.25;4830950;29;20053;-71
2022/09/23 00:31:24;;;;;;;2.45;2.28;;;;;;;14.24;65.56;101410.25;4822117;29;20047;-71
2022/09/23 00:33:57;;;;;;;3.08;2.15;;;;;;;14.42;65.39;101408.72;4826134;29;20066;-71
2022/09/23 00:36:27;;;;;;;3.22;2.70;;;;;;;14.38;65.19;101399.41;4817372;29;20688;-71
2022/09/23 00:38:55;;;;;;;2.95;2.60;;;;;;;14.33;65.28;101396.69;4825987;29;20486;-71
2022/09/23 00:41:24;;;;;;;3.15;2.85;;;;;;;14.28;65.40;101402.22;4821114;29;20138;-71
2022/09/23 00:43:59;;;;;;;2.88;2.58;;;;;;;14.26;65.05;101402.50;4813150;29;20510;-71
2022/09/23 00:46:42;;;;;;;3.97;2.58;;;;;;;14.27;64.67;101400.59;4789915;29;20058;-71
2022/09/23 00:49:12;;;;;;;3.00;2.70;;;;;;;14.12;65.74;101394.06;4827757;29;20062;-71
2022/09/23 00:51:46;;;;;;;2.85;2.50;;;;;;;14.17;65.23;101391.28;4833325;29;20387;-71
2022/09/23 00:54:15;;;;;;;;;;;;;;;14.12;65.00;101391.31;4822486;29;20046;-71
2022/09/23 00:56:43;;;;;;;2.60;2.40;;;;;;;14.15;64.72;101381.66;4822119;29;19932;-71
2022/09/23 00:59:12;;;;;;;4.43;2.58;;;;;;;14.16;64.93;101388.78;4806022;29;20413;-71
2022/09/23 01:01:41;;;;;;;6.13;2.67;;;;;;;14.14;64.96;101383.59;4819412;29;20058;-71
2022/09/23 01:04:09;;;;;;;2.55;2.35;;;;;;;14.09;64.97;101392.69;4823409;29;20038;-71
2022/09/23 01:06:37;;;;;;;3.60;2.33;;;;;;;14.08;64.45;101393.00;4827278;29;20061;-71
2022/09/23 01:09:05;;;;;;;4.10;2.70;;;;;;;14.16;64.06;101392.38;4823453;29;20065;-71
2022/09/23 01:11:47;;;;;;;3.92;2.60;;;;;;;14.14;64.85;101388.28;4821347;29;20062;-71
2022/09/23 01:14:40;;;;;;;2.53;2.33;;;;;;;14.12;63.84;101383.03;4821270;29;20382;-71
2022/09/23 01:17:23;;;;;;;3.60;2.88;;;;;;;14.01;64.75;101381.44;4836050;29;20054;-71
2022/09/23 01:20:23;;;;;;;2.65;2.45;;;;;;;13.98;64.68;101382.84;4810317;29;20051;-71
2022/09/23 01:23:06;;;;;;;2.90;2.63;;;;;;;14.07;64.13;101372.06;4802089;29;20062;-71
2022/09/23 01:25:58;;;;;;;4.10;2.83;;;;;;;13.87;64.78;101375.78;4831788;29;20050;-71
2022/09/23 01:28:35;;;;;;;3.70;2.38;;;;;;;13.92;64.96;101378.47;4807034;29;20062;-71
2022/09/23 01:31:12;;;;;;;3.65;2.88;;;;;;;13.96;65.17;101368.56;4825139;29;20046;-71
2022/09/23 01:33:49;;;;;;;2.88;2.60;;;;;;;14.02;64.67;101374.88;4828736;29;20073;-71
2022/09/23 01:36:23;;;;;;;2.80;2.60;;;;;;;14.12;63.66;101361.03;4826539;29;20050;-71
2022/09/23 01:39:02;;;;;;;2.47;2.27;;;;;;;14.05;63.59;101366.03;4829762;29;20062;-71
2022/09/23 01:41:33;;;;;;;3.58;2.67;;;;;;;13.73;64.79;101359.06;4824563;29;20141;-71
2022/09/23 01:44:24;;;;;;;3.72;2.72;;;;;;;13.79;64.51;101360.66;4823044;29;20054;-71
2022/09/23 01:46:58;;;;;;;3.25;2.47;;;;;;;13.53;65.03;101361.59;4814709;29;20050;-70
2022/09/23 01:49:38;;;;;;;2.90;2.30;;;;;;;13.62;64.84;101364.59;4824582;29;20054;-71
2022/09/23 01:52:14;;;;;;;4.45;2.22;;;;;;;13.54;64.81;101362.44;4820429;29;20054;-71
2022/09/23 01:55:17;;;;;;;2.38;2.17;;;;;;;13.55;64.63;101347.56;4822257;29;20375;-71
2022/09/23 01:57:52;;;;;;;2.00;1.85;;;;;;;13.55;64.49;101353.06;4823345;29;20054;-71
2022/09/23 02:00:22;;;;;;;2.20;2.00;;;;;;;13.43;64.73;101351.44;4808026;29;20046;-71
2022/09/23 02:02:58;;;;;;;3.03;2.58;;;;;;;13.51;64.40;101354.72;4830464;29;20069;-71
2022/09/23 02:05:41;;;;;;;2.10;1.90;;;;;;;13.47;64.13;101345.38;4824618;29;20065;-71
2022/09/23 02:08:28;;;;;;;1.80;1.70;;;;;;;13.46;64.51;101344.59;4824522;29;20051;-71
2022/09/23 02:11:07;;;;;;;1.90;1.67;;;;;;;13.49;63.71;101354.19;4824600;29;20043;-71
2022/09/23 02:13:51;;;;;;;1.67;1.58;;;;;;;13.46;63.44;101350.09;4824959;29;20067;-71
2022/09/23 02:16:39;;;;;;;2.55;2.22;;;;;;;13.42;63.08;101358.03;4824592;29;20053;-70
2022/09/23 02:19:19;;;;;;;2.20;2.03;;;;;;;13.50;62.09;101356.66;4823159;29;20147;-71
2022/09/23 02:22:10;;;;;;;1.92;1.75;;;;;;;13.48;62.35;101361.63;4808679;29;20051;-71
2022/09/23 02:24:38;;;;;;;2.38;1.50;;;;;;;13.35;62.90;101353.94;4825854;29;20397;-71
2022/09/23 02:27:17;;;;;;;1.77;1.58;;;;;;;13.43;62.78;101350.59;4819016;29;20069;-71
2022/09/23 02:30:02;;;;;;;2.08;1.67;;;;;;;13.43;62.69;101351.44;4817060;29;20063;-71
2022/09/23 02:32:48;;;;;;;1.75;1.63;;;;;;;13.49;61.93;101348.69;4824412;29;20062;-70
2022/09/23 02:35:40;;;;;;;1.50;1.40;;;;;;;13.49;61.43;101351.44;4825633;29;20050;-71
2022/09/23 02:38:24;;;;;;;3.55;1.67;;;;;;;13.33;62.88;101348.72;4824322;29;20050;-71
2022/09/23 02:41:31;;;;;;;1.35;1.25;;;;;;;13.27;61.64;101347.09;4808256;29;20063;-71
2022/09/23 02:44:09;;;;;;;3.60;1.60;;;;;;;13.24;61.89;101344.91;4786704;29;20058;-71
2022/09/23 02:46:37;;;;;;;1.45;1.35;;;;;;;13.43;60.97;101345.94;4818883;29;20054;-71
2022/09/23 02:49:27;;;;;;;3.60;1.30;;;;;;;13.36;60.62;101347.34;4824821;29;20053;-70
2022/09/23 02:51:56;;;;;;;1.75;1.42;;;;;;;13.38;61.55;101343.19;4824832;29;20059;-71
2022/09/23 02:54:27;;;;;;;2.58;1.27;;;;;;;13.29;61.31;101340.22;4824226;29;20053;-70
2022/09/23 02:56:56;;;;;;;1.42;1.33;;;;;;;13.25;61.11;101341.06;4823522;29;20046;-71
2022/09/23 02:59:23;;;;;;;1.70;1.60;;;;;;;13.22;61.35;101338.84;4823094;29;20516;-71
2022/09/23 03:01:57;;;;;;;2.22;1.35;;;;;;;13.14;61.91;101326.50;4821404;29;20050;-71
2022/09/23 03:04:38;;;;;;;1.73;1.50;;;;;;;13.12;61.82;101336.97;4824313;29;20046;-71
2022/09/23 03:07:16;;;;;;;1.63;1.35;;;;;;;13.09;63.51;101329.28;4824560;29;20065;-71
2022/09/23 03:09:53;;;;;;;1.40;1.30;;;;;;;13.07;62.88;101321.31;4824056;29;20046;-71
2022/09/23 03:12:51;;;;;;;1.33;1.23;;;;;;;13.05;63.20;101334.47;4823233;29;20179;-71
2022/09/23 03:15:30;;;;;;;1.92;1.48;;;;;;;13.14;61.70;101323.75;4823840;29;20046;-71
2022/09/23 03:18:04;;;;;;;1.50;1.35;;;;;;;13.14;61.87;101319.09;4820389;29;20073;-71
2022/09/23 03:20:38;;;;;;;2.60;1.40;;;;;;;13.13;62.11;101324.84;4824606;29;20406;-71
2022/09/23 03:23:07;;;;;;;;;;;;;;;13.05;62.07;101323.50;4822183;29;20057;-71
2022/09/23 03:25:41;;;;;;;1.90;1.50;;;;;;;13.05;61.74;101320.75;4820880;29;19965;-71
2022/09/23 03:28:10;;;;;;;2.95;1.75;;;;;;;13.01;61.71;101309.50;4815679;29;20050;-71
2022/09/23 03:30:39;;;;;;;1.42;1.33;;;;;;;12.96;62.08;101314.19;4812097;29;20050;-71
2022/09/23 03:33:11;;;;;;;1.35;1.25;;;;;;;12.95;62.47;101316.09;4825629;29;20058;-71
2022/09/23 03:38:43;;;;;;;1.23;1.15;;;;;;;12.94;61.88;101319.16;4821203;29;20498;-70
2022/09/23 03:41:18;;;;;;;2.20;1.50;;;;;;;12.94;62.95;101313.66;4817338;29;20055;-71
2022/09/23 03:43:47;;;;;;;1.30;1.20;;;;;;;12.89;63.31;101304.31;4830027;29;20058;-71
2022/09/23 03:46:16;;;;;;;1.73;1.63;;;;;;;12.86;62.73;101304.84;4823266;29;20069;-71
2022/09/23 03:48:44;;;;;;;1.50;1.30;;;;;;;12.80;62.40;101294.97;4827476;29;20041;-71
2022/09/23 03:51:30;;;;;;;1.52;1.42;;;;;;;12.79;63.53;101296.09;4826642;29;20046;-71
2022/09/23 03:53:58;;;;;;;2.17;1.98;;;;;;;12.90;63.07;101300.47;4821600;29;20053;-71
2022/09/23 03:56:25;;;;;;;1.95;1.33;;;;;;;12.83;63.05;101297.19;4822372;29;20046;-71
2022/09/23 03:58:53;;;;;;;2.13;1.60;;;;;;;12.82;63.44;101298.28;4822225;29;20050;-71
2022/09/23 04:01:21;;;;;;;1.35;1.25;;;;;;;12.81;62.45;101285.63;4822589;29;20482;-70
2022/09/23 04:03:51;;;;;;;1.60;1.50;;;;;;;12.86;63.08;101293.88;4823155;29;20050;-71
2022/09/23 04:06:19;;;;;;;3.50;1.00;;;;;;;12.83;61.83;101288.94;4819448;29;20411;-71
2022/09/23 04:08:47;;;;;;;1.40;1.30;;;;;;;12.79;62.42;101282.34;4819773;29;20042;-71
2022/09/23 04:11:15;;;;;;;3.15;1.55;;;;;;;12.81;61.93;101280.16;4821445;29;20077;-71
2022/09/23 04:13:43;;;;;;;5.03;1.20;;;;;;;12.82;61.83;101280.97;4822233;29;20394;-71
2022/09/23 04:16:11;;;;;;;1.40;1.30;;;;;;;12.82;62.10;101284.56;4813622;29;20409;-71
2022/09/23 04:18:39;;;;;;;1.40;1.30;;;;;;;12.83;62.49;101282.63;4821730;29;20054;-71
2022/09/23 04:21:06;;;;;;;1.83;1.70;;;;;;;12.80;62.63;101281.25;4832210;29;20494;-70
2022/09/23 04:23:34;;;;;;;1.33;1.08;;;;;;;12.81;62.50;101282.09;4823159;29;20055;-71
2022/09/23 04:26:04;;;;;;;2.47;1.30;;;;;;;12.80;62.12;101278.50;4824009;29;20470;-70
2022/09/23 04:28:33;;;;;;;1.38;1.27;;;;;;;12.87;61.53;101284.53;4825904;29;20072;-70
2022/09/23 04:31:05;;;;;;;1.58;1.48;;;;;;;12.83;62.63;101283.44;4819805;29;20053;-71
2022/09/23 04:33:34;;;;;;;2.00;1.50;;;;;;;12.89;62.37;101285.09;4829635;29;20053;-71
2022/09/23 04:36:02;;;;;;;2.05;1.65;;;;;;;12.79;64.40;101278.78;4821769;29;20042;-71
2022/09/23 04:38:30;;;;;;;1.67;1.55;;;;;;;12.70;62.96;101282.09;4820911;29;20053;-71
2022/09/23 04:40:58;;;;;;;1.77;1.50;;;;;;;12.71;63.12;101278.25;4817480;29;20039;-82
2022/09/23 04:43:26;;;;;;;1.58;1.45;;;;;;;12.89;62.56;101276.84;4818179;29;20081;-78
2022/09/23 04:46:01;;;;;;;1.58;1.38;;;;;;;12.99;62.45;101277.91;4821899;29;20046;-77
2022/09/23 04:48:30;;;;;;;3.03;1.63;;;;;;;13.01;62.27;101286.72;4827473;29;20049;-77
2022/09/23 04:51:03;;;;;;;3.83;1.98;;;;;;;13.07;62.16;101280.09;4821295;29;20050;-76
2022/09/23 04:53:32;;;;;;;2.58;1.88;;;;;;;13.08;63.07;101283.66;4823296;29;20062;-77
2022/09/23 04:56:32;;;;;;;5.07;2.25;;;;;;;13.06;62.47;101289.44;4817341;29;20050;-75
2022/09/23 04:59:03;;;;;;;3.47;1.70;;;;;;;13.05;63.51;101285.03;4826924;29;20057;-76
2022/09/23 05:01:35;;;;;;;4.40;1.80;;;;;;;13.16;63.59;101291.34;4818737;29;20058;-76
2022/09/23 05:04:12;;;;;;;6.43;2.03;;;;;;;13.25;63.63;101288.84;4807826;29;20725;-75
2022/09/23 05:06:43;;;;;;;3.08;2.05;;;;;;;13.31;62.97;101287.72;4806270;29;20084;-74
2022/09/23 05:09:16;;;;;;;8.85;1.90;;;;;;;13.23;63.31;101285.53;4820041;29;20069;-74
2022/09/23 05:11:47;;;;;;;3.45;2.35;;;;;;;13.35;62.70;101288.75;4826011;29;20043;-74
2022/09/23 05:14:39;;;;;;;7.80;2.38;;;;;;;13.33;63.43;101290.97;4823342;29;20050;-74
2022/09/23 05:17:11;;;;;;;3.20;1.70;;;;;;;13.38;62.95;101292.88;4837117;29;20057;-75
2022/09/23 05:19:52;;;;;;;6.10;2.55;;;;;;;13.43;62.36;101296.44;4820233;29;20057;-75
2022/09/23 05:22:26;;;;;;;8.88;3.15;;;;;;;13.42;61.72;101294.81;4824652;29;20391;-75
2022/09/23 05:25:06;;;;;;;6.13;2.75;;;;;;;13.55;61.91;101289.84;4821830;29;20510;-75
2022/09/23 05:27:37;;;;;;;8.60;3.63;;;;;;;13.55;62.96;101293.38;4823415;29;20061;-75
2022/09/23 05:30:10;;;;;;;6.20;3.72;;;;;;;13.63;61.92;101297.47;4827567;29;20061;-75
2022/09/23 05:32:41;;;;;;;13.77;4.13;;;;;;;13.55;62.18;101298.09;4822188;29;20418;-75
2022/09/23 05:35:13;;;;;;;6.63;4.03;;;;;;;13.58;62.10;101300.25;4823699;29;20058;-76
2022/09/23 05:37:41;;;;;;;5.40;3.92;;;;;;;13.71;61.83;101290.56;4825650;29;20070;-76
2022/09/23 05:40:09;;;;;;;5.45;3.78;;;;;;;13.81;61.42;101298.75;4825626;29;20058;-78
2022/09/23 05:42:37;;;;;;;5.50;3.58;;;;;;;13.89;60.52;101291.81;4823298;29;20053;-78
2022/09/23 05:45:06;;;;;;;4.82;3.00;;;;;;;14.16;59.75;101295.22;4822349;29;20418;-71
2022/09/23 05:47:34;;;;;;;8.10;3.72;;;;;;;14.27;59.74;101295.97;4823431;29;20062;-70
2022/09/23 05:50:02;;;;;;;3.70;2.90;;;;;;;14.56;57.80;101297.94;4823871;29;20057;-71
2022/09/23 05:52:30;;;;;;;5.28;3.72;;;;;;;14.70;57.93;101301.66;4824456;29;20058;-71
2022/09/23 05:54:58;;;;;;;4.75;3.38;;;;;;;14.69;57.54;101297.25;4824498;29;20047;-70
2022/09/23 05:57:26;;;;;;;3.40;2.53;;;;;;;14.75;57.41;101295.28;4806876;29;20061;-71
2022/09/23 05:59:54;;;;;;;4.30;2.50;;;;;;;14.86;56.76;101285.00;4824202;29;20054;-71
2022/09/23 06:02:22;;;;;;;3.63;2.22;;;;;;;15.00;56.38;101294.22;4838655;29;20405;-71
2022/09/23 06:04:50;;;;;;;2.40;2.20;;;;;;;15.01;55.44;101293.09;4824757;29;20054;-71
2022/09/23 06:07:18;;;;;;;2.30;1.88;;;;;;;15.17;55.61;101295.69;4823018;29;20621;-70
2022/09/23 06:09:46;;;;;;;3.08;2.13;;;;;;;15.36;55.02;101289.38;4824139;29;20050;-71
2022/09/23 06:12:14;;;;;;;4.47;2.40;;;;;;;15.39;54.47;101288.81;4823404;29;20059;-71
2022/09/23 06:14:42;;;;;;;4.57;2.03;;;;;;;15.55;54.19;101283.91;4824226;29;20581;-71
2022/09/23 06:17:09;;;;;;;2.97;2.38;;;;;;;15.74;53.62;101285.84;4822945;29;21001;-71
2022/09/23 06:19:37;;;;;;;1.95;1.73;;;;;;;15.72;53.64;101295.25;4812041;29;20050;-71
2022/09/23 06:22:05;;;;;;;2.20;1.92;;;;;;;15.97;52.41;101292.44;4824171;29;20058;-71
2022/09/23 06:24:33;;;;;;;4.05;2.22;;;;;;;16.11;52.67;101287.81;4824373;29;20054;-71
2022/09/23 06:27:01;;;;;;;2.03;1.75;;;;;;;16.15;52.22;101295.47;4824043;29;20062;-71
2022/09/23 06:29:32;;;;;;;2.78;2.00;;;;;;;16.41;51.93;101286.81;4806567;29;20125;-70
2022/09/23 06:32:00;;;;;;;1.77;1.67;;;;;;;16.56;52.33;101289.28;4823050;29;20065;-71
2022/09/23 06:34:28;;;;;;;2.17;1.67;;;;;;;16.88;51.14;101289.53;4823460;29;20054;-71
2022/09/23 06:36:57;;;;;;;1.80;1.70;;;;;;;16.99;50.35;101296.50;4823718;29;21060;-71
2022/09/23 06:39:32;;;;;;;2.65;1.70;;;;;;;17.10;50.04;101290.81;4825797;29;20079;-71
2022/09/23 06:42:00;;;;;;;1.63;1.52;;;;;;;17.02;50.59;101289.56;4841626;29;20046;-71
2022/09/23 06:44:28;;;;;;;2.35;1.95;;;;;;;16.99;50.43;101287.38;4828499;29;20077;-71
2022/09/23 06:46:56;;;;;;;1.70;1.60;;;;;;;17.11;50.29;101286.94;4831193;29;20046;-71
2022/09/23 06:49:24;;;;;;;1.52;1.33;;;;;;;17.08;49.26;101291.13;4822693;29;20062;-71
2022/09/23 06:51:51;;;;;;;1.27;1.17;;;;;;;17.10;49.33;101286.09;4807164;29;20050;-71
2022/09/23 06:54:19;;;;;;;1.70;1.60;;;;;;;17.43;48.98;101294.28;4823449;29;20073;-71
2022/09/23 06:56:47;;;;;;;5.30;2.30;;;;;;;17.81;48.05;101293.19;4823317;29;20050;-71
2022/09/23 06:59:15;;;;;;;2.20;1.67;;;;;;;18.37;47.71;101297.69;4826569;29;20065;-71
2022/09/23 07:01:45;;;;;;;1.75;1.63;;;;;;;18.45;45.59;101299.72;4822604;29;20050;-71
2022/09/23 07:04:13;;;;;;;2.70;1.65;;;;;;;18.72;45.21;101292.34;4823623;29;20042;-71
2022/09/23 07:06:41;;;;;;;2.67;1.80;;;;;;;18.89;44.14;101291.63;4823672;29;20375;-71
2022/09/23 07:09:09;;;;;;;1.45;1.35;;;;;;;19.06;43.81;101295.63;4823195;29;20053;-71
2022/09/23 07:11:38;;;;;;;2.35;1.38;;;;;;;19.01;44.92;101299.34;4822195;29;20072;-71
2022/09/23 07:14:06;;;;;;;2.80;1.75;;;;;;;19.26;45.78;101299.78;4823318;29;20070;-72
2022/09/23 07:16:33;;;;;;;3.47;2.28;;;;;;;19.39;43.60;101298.03;4823092;29;20061;-72
2022/09/23 07:19:01;;;;;;;3.78;2.13;;;;;;;19.30;43.61;101300.78;4822978;29;20065;-72
2022/09/23 07:21:29;;;;;;;2.22;1.83;;;;;;;19.37;43.80;101305.88;4821478;29;20065;-72
2022/09/23 07:23:57;;;;;;;3.58;2.15;;;;;;;19.60;43.23;101309.34;4822922;29;20062;-72
2022/09/23 07:26:25;;;;;;;5.00;2.10;;;;;;;19.76;42.28;101305.25;4811071;29;20529;-71
2022/09/23 07:28:55;;;;;;;3.28;1.85;;;;;;;19.94;41.66;101311.66;4823047;29;20046;-71
2022/09/23 07:31:23;;;;;;;3.20;1.50;;;;;;;20.01;40.92;101307.25;4821777;29;20050;-73
2022/09/23 07:34:07;;;;;;;2.65;1.23;;;;;;;20.03;39.76;101308.91;4823301;29;20072;-71
2022/09/23 07:36:36;;;;;;;2.50;1.40;;;;;;;19.90;39.81;101314.28;4822588;29;20058;-71
2022/09/23 07:39:04;;;;;;;3.30;1.50;;;;;;;20.18;39.89;101315.94;4822401;29;20070;-71
2022/09/23 07:41:33;;;;;;;7.90;2.75;;;;;;;20.47;39.55;101311.66;4836631;29;20057;-71
2022/09/23 07:44:02;;;;;;;5.47;3.17;;;;;;;20.85;39.46;101316.47;4822668;29;20042;-71
2022/09/23 07:46:32;;;;;;;6.38;2.67;;;;;;;20.85;39.93;101312.88;4822230;29;20061;-71
2022/09/23 07:49:02;;;;;;;3.47;2.30;;;;;;;21.02;38.91;101312.81;4822558;29;20050;-71
2022/09/23 07:51:32;;;;;;;2.53;2.17;;;;;;;21.09;39.29;101317.84;4816884;29;20059;-71
2022/09/23 07:54:10;;;;;;;3.90;2.00;;;;;;;21.18;39.63;101312.25;4804033;29;20050;-71
2022/09/23 07:56:39;;;;;;;7.30;2.15;;;;;;;20.95;39.57;101320.84;4803639;29;20517;-71
2022/09/23 07:59:17;;;;;;;4.25;1.85;;;;;;;21.12;39.53;101322.75;4772825;29;20059;-71
2022/09/23 08:01:47;;;;;;;4.80;2.33;;;;;;;21.40;39.83;101319.50;4804613;29;20061;-71
2022/09/23 08:04:19;;;;;;;3.63;1.90;;;;;;;21.53;39.01;101317.63;4803590;29;20049;-71
2022/09/23 08:06:52;;;;;;;6.80;2.33;;;;;;;21.44;36.74;101317.69;4803933;29;20059;-71
2022/09/23 08:09:23;;;;;;;3.03;1.97;;;;;;;21.54;37.54;101319.25;4804118;29;20058;-71
2022/09/23 08:11:51;;;;;;;5.15;2.40;;;;;;;21.74;37.87;101312.09;4804440;29;20537;-71
2022/09/23 08:14:21;;;;;;;3.13;2.28;;;;;;;21.59;38.38;101316.28;4803733;29;20039;-71
2022/09/23 08:16:50;;;;;;;3.33;2.13;;;;;;;21.67;38.70;101316.53;4803730;29;21017;-71
2022/09/23 08:19:18;;;;;;;2.95;2.33;;;;;;;21.99;38.31;101306.66;4803189;29;20050;-71
2022/09/23 08:21:46;;;;;;;2.63;2.25;;;;;;;21.94;38.16;101309.66;4804440;29;20411;-71
2022/09/23 08:24:17;;;;;;;1.60;1.50;;;;;;;22.18;37.13;101315.69;4803099;29;20528;-71
2022/09/23 08:26:46;;;;;;;2.60;1.88;;;;;;;21.70;36.95;101311.13;4803380;29;20392;-71
2022/09/23 08:29:16;;;;;;;1.52;1.33;;;;;;;21.86;37.70;101319.69;4803296;29;20052;-71
2022/09/23 08:31:45;;;;;;;2.30;1.60;;;;;;;22.34;38.81;101316.66;4804196;29;20046;-71
2022/09/23 08:34:13;;;;;;;2.08;1.88;;;;;;;22.18;38.58;101322.06;4803314;29;20055;-71
2022/09/23 08:36:43;;;;;;;2.35;1.77;;;;;;;22.44;37.71;101320.19;4803776;29;20051;-71
2022/09/23 08:39:19;;;;;;;6.20;1.90;;;;;;;22.41;38.37;101322.53;4787896;29;20062;-71
2022/09/23 08:41:53;;;;;;;4.07;1.58;;;;;;;22.63;37.51;101322.50;4804374;29;20070;-71
2022/09/23 08:44:46;;;;;;;2.70;1.73;;;;;;;22.58;37.58;101314.34;4803399;29;20059;-71
2022/09/23 08:47:28;;;;;;;4.35;1.75;;;;;;;22.48;37.71;101327.53;4803244;29;20054;-71
2022/09/23 08:50:01;;;;;;;2.03;1.58;;;;;;;22.74;36.14;101322.84;4804003;29;20402;-71
2022/09/23 08:52:55;;;;;;;1.90;1.30;;;;;;;22.84;35.97;101319.63;4801994;29;20065;-71
2022/09/23 08:55:42;;;;;;;1.95;1.40;;;;;;;22.89;35.70;101318.56;4804425;29;20398;-71
2022/09/23 08:58:20;;;;;;;2.35;1.80;;;;;;;22.85;36.10;101323.22;4802707;29;20050;-71
2022/09/23 09:01:02;;;;;;;2.72;1.42;;;;;;;22.29;36.18;101317.69;4787587;29;20047;-71
2022/09/23 09:03:38;;;;;;;2.15;1.38;;;;;;;22.66;35.82;101319.00;4803551;29;20059;-71
2022/09/23 09:06:14;;;;;;;3.90;1.70;;;;;;;22.86;35.21;101313.72;4802987;29;20407;-70
2022/09/23 09:08:48;;;;;;;1.40;1.30;;;;;;;22.94;34.50;101305.19;4802537;29;20407;-71
2022/09/23 09:11:18;;;;;;;2.35;1.50;;;;;;;23.17;33.48;101315.13;4803943;29;20055;-71
2022/09/23 09:14:26;;;;;;;2.63;1.38;;;;;;;23.03;34.29;101312.66;4804001;29;20054;-71
2022/09/23 09:16:59;;;;;;;3.38;2.30;;;;;;;23.02;34.25;101311.84;4775138;29;20066;-71
2022/09/23 09:19:31;;;;;;;;;;;;;;;23.35;36.06;101305.34;4801687;29;20558;-71
2022/09/23 09:22:00;;;;;;;3.33;1.83;;;;;;;23.74;35.24;101304.94;4802179;29;19925;-71
2022/09/23 09:24:33;;;;;;;3.90;1.83;;;;;;;23.54;34.96;101303.13;4803757;29;20486;-71
2022/09/23 09:27:10;;;;;;;2.00;1.70;;;;;;;23.31;34.99;101300.84;4803751;29;20066;-71
2022/09/23 09:29:47;;;;;;;8.13;3.33;;;;;;;23.67;34.89;101301.13;4802894;29;20050;-71
2022/09/23 09:32:47;;;;;;;69.13;7.40;;;;;;;24.11;34.49;101300.44;4803678;29;20058;-70
2022/09/23 09:35:36;;;;;;;5.57;1.83;;;;;;;24.41;33.63;101286.88;4803554;29;20072;-70
2022/09/23 09:38:07;;;;;;;16.02;2.42;;;;;;;24.41;32.54;101295.28;4803064;29;20063;-71
2022/09/23 09:40:42;;;;;;;2.13;1.75;;;;;;;24.25;32.49;101288.84;4802836;29;20070;-70
2022/09/23 09:43:22;;;;;;;6.20;1.70;;;;;;;24.21;33.25;101294.34;4803594;29;20051;-71
2022/09/23 09:46:32;;;;;;;4.65;1.92;;;;;;;24.28;33.31;101290.91;4805640;29;20066;-70
2022/09/23 09:49:12;;;;;;;3.72;2.03;;;;;;;24.43;32.21;101295.72;4794448;29;20532;-70
2022/09/23 09:51:41;;;;;;;2.33;1.27;;;;;;;24.74;33.16;101289.72;4812366;29;20061;-71
2022/09/23 09:54:23;;;;;;;1.92;1.73;;;;;;;24.69;32.53;101293.59;4824816;29;20494;-71
2022/09/23 09:56:52;;;;;;;1.65;1.55;;;;;;;24.83;31.11;101298.78;4825536;29;20050;-70
2022/09/23 09:59:29;;;;;;;28.38;4.07;;;;;;;24.75;32.19;101288.53;4823839;29;20042;-71
2022/09/23 10:02:20;;;;;;;2.85;2.05;;;;;;;23.86;32.26;101292.91;4807981;29;20071;-70
2022/09/23 10:05:06;;;;;;;3.20;1.42;;;;;;;23.86;33.22;101292.91;4838236;29;20076;-70
2022/09/23 10:07:33;;;;;;;1.48;1.38;;;;;;;23.91;33.36;101293.84;4808121;29;20057;-71
2022/09/23 10:10:25;;;;;;;2.80;1.90;;;;;;;24.10;33.32;101285.63;4824453;29;20062;-70
2022/09/23 10:13:14;;;;;;;4.25;2.00;;;;;;;24.47;32.10;101283.81;4824593;29;20043;-71
2022/09/23 10:15:43;;;;;;;2.22;2.05;;;;;;;24.29;32.44;101286.94;4824001;29;20057;-71
2022/09/23 10:18:23;;;;;;;9.82;2.10;;;;;;;23.74;33.88;101281.75;4823958;29;20054;-71
2022/09/23 10:20:51;;;;;;;2.63;1.65;;;;;;;24.15;32.62;101285.38;4824645;29;20418;-71
2022/09/23 10:23:26;;;;;;;1.77;1.67;;;;;;;24.53;31.70;101274.78;4823247;29;20057;-71
2022/09/23 10:25:57;;;;;;;1.52;1.42;;;;;;;24.24;32.23;101284.41;4824454;29;20046;-70
2022/09/23 10:28:45;;;;;;;2.30;1.65;;;;;;;24.65;31.68;101276.72;4824350;29;20053;-71
2022/09/23 10:31:27;;;;;;;1.80;1.70;;;;;;;24.38;31.36;101272.78;4822996;29;20050;-71
2022/09/23 10:34:00;;;;;;;1.55;1.45;;;;;;;24.80;31.15;101268.66;4807203;29;20050;-72
2022/09/23 10:36:31;;;;;;;4.28;1.95;;;;;;;24.25;32.55;101275.66;4793227;29;20072;-70
2022/09/23 10:48:17;;;;;;;1.02;0.93;;;;;;;24.82;31.94;101264.38;4823920;29;20054;-71
2022/09/23 10:50:52;;;;;;;1.35;1.13;;;;;;;25.06;32.08;101268.13;4819028;29;20055;-71
2022/09/23 10:53:41;;;;;;;3.47;1.83;;;;;;;25.47;30.68;101267.84;4817283;29;20054;-71
2022/09/23 10:56:22;;;;;;;1.55;1.45;;;;;;;25.07;30.99;101275.34;4829140;29;20049;-72
2022/09/23 10:59:05;;;;;;;1.65;1.42;;;;;;;25.35;31.13;101265.19;4837320;29;20042;-70
2022/09/23 11:02:01;;;;;;;1.98;1.65;;;;;;;25.14;30.97;101260.72;4823486;29;20058;-70
2022/09/23 11:04:46;;;;;;;1.30;1.20;;;;;;;25.46;29.87;101255.03;4823206;29;20058;-70
2022/09/23 11:07:48;;;;;;;1.50;1.35;;;;;;;24.96;30.97;101254.69;4836880;29;20054;-71
2022/09/23 11:10:48;;;;;;;1.50;1.40;;;;;;;25.01;31.22;101256.38;4823732;29;20054;-71
2022/09/23 11:13:36;;;;;;;2.30;1.60;;;;;;;25.25;29.39;101243.34;4823688;29;20038;-71
2022/09/23 11:16:28;;;;;;;1.55;1.45;;;;;;;25.67;29.12;101253.91;4822897;29;20443;-71
2022/09/23 11:19:00;;;;;;;1.60;1.50;;;;;;;25.69;29.90;101236.69;4823186;29;20058;-71
2022/09/23 11:21:32;;;;;;;1.60;1.50;;;;;;;25.97;29.30;101236.50;4823593;29;20058;-70
2022/09/23 11:24:34;;;;;;;3.72;1.50;;;;;;;26.06;28.85;101233.47;4823535;29;20406;-71
2022/09/23 11:27:14;;;;;;;1.15;1.15;;;;;;;25.90;29.44;101219.50;4822552;29;20054;-71
2022/09/23 11:30:09;;;;;;;1.67;1.50;;;;;;;25.98;29.56;101224.09;4823339;29;20042;-71
2022/09/23 11:32:55;;;;;;;1.98;1.88;;;;;;;25.90;28.70;101220.31;4837227;29;20054;-71
2022/09/23 11:35:35;;;;;;;2.63;1.83;;;;;;;26.37;29.42;101216.78;4823533;29;20046;-71
2022/09/23 11:38:17;;;;;;;4.72;2.13;;;;;;;26.33;29.47;101215.94;4822454;29;20046;-71
2022/09/23 11:40:53;;;;;;;7.18;2.17;;;;;;;25.80;30.53;101203.31;4813247;29;20063;-71
2022/09/23 11:43:27;;;;;;;1.70;1.50;;;;;;;26.73;29.26;101210.97;4821558;29;20038;-71
2022/09/23 11:46:14;;;;;;;1.90;1.58;;;;;;;26.77;28.30;101203.41;4821731;29;20069;-71
2022/09/23 11:49:14;;;;;;;1.67;1.58;;;;;;;26.63;28.06;101196.38;4819357;29;20065;-71
2022/09/23 11:52:09;;;;;;;1.55;1.42;;;;;;;26.60;28.98;101201.94;4802254;29;20050;-71
2022/09/23 11:55:19;;;;;;;2.05;1.42;;;;;;;26.42;28.84;101199.66;4805459;29;20142;-83
2022/09/23 11:58:12;;;;;;;1.40;1.30;;;;;;;26.14;29.31;101195.94;4820575;29;20051;-83
2022/09/23 12:01:06;;;;;;;1.88;1.75;;;;;;;25.32;29.97;101195.91;4810991;29;20046;-84
2022/09/23 12:03:42;;;;;;;4.43;2.35;;;;;;;24.80;30.51;101187.50;4822264;29;20053;-83
2022/09/23 12:06:41;;;;;;;1.40;1.30;;;;;;;24.55;31.98;101179.31;4823355;29;20049;-84
2022/09/23 12:09:45;;;;;;;1.48;1.38;;;;;;;24.64;31.54;101181.94;4821752;29;20474;-84
2022/09/23 12:12:46;;;;;;;1.65;1.55;;;;;;;24.61;31.72;101180.69;4811369;29;20061;-83
2022/09/23 12:15:53;;;;;;;4.20;2.17;;;;;;;24.65;30.25;101170.38;4822006;29;20057;-83
2022/09/23 12:18:34;;;;;;;2.20;1.92;;;;;;;24.51;30.88;101179.25;4820642;29;20053;-84